createdAt,value
2018-09-04T00:02:26.748Z,100176.41
2018-09-04T00:04:53.663Z,100179.03
2018-09-04T00:07:21.895Z,100176.75
2018-09-04T00:09:49.447Z,100176.83
2018-09-04T00:12:16.494Z,100173.04
2018-09-04T00:14:44.207Z,100175.17
2018-09-04T00:17:11.148Z,100176.98
2018-09-04T00:19:38.189Z,100167.23
2018-09-04T00:22:05.176Z,100172.30
2018-09-04T00:24:32.208Z,100171.14
2018-09-04T00:26:59.140Z,100173.13
2018-09-04T00:29:27.060Z,100174.05
2018-09-04T00:31:54.024Z,100178.30
2018-09-04T00:34:21.045Z,100172.10
2018-09-04T00:36:47.959Z,100177.85
2018-09-04T00:39:14.871Z,100178.17
2018-09-04T00:41:41.880Z,100177.08
2018-09-04T00:44:08.807Z,100174.75
2018-09-04T00:46:35.776Z,100173.44
2018-09-04T00:49:02.736Z,100181.50
2018-09-04T00:51:30.704Z,100180.59
2018-09-04T00:53:57.664Z,100180.52
2018-09-04T00:56:24.624Z,100181.32
2018-09-04T00:58:51.639Z,100187.62
2018-09-04T01:01:18.507Z,100181.31
2018-09-04T01:03:45.516Z,100188.16
2018-09-04T01:06:12.460Z,100188.59
2018-09-04T01:08:39.404Z,100186.39
2018-09-04T01:11:06.276Z,100186.84
2018-09-04T01:13:39.739Z,100188.66
2018-09-04T01:16:06.738Z,100190.02
2018-09-04T01:18:33.697Z,100182.55
2018-09-04T01:21:01.127Z,100186.97
2018-09-04T01:23:28.113Z,100183.23
2018-09-04T01:25:55.090Z,100185.59
2018-09-04T01:28:22.056Z,100187.11
2018-09-04T01:30:49.001Z,100185.30
2018-09-04T01:33:15.908Z,100191.41
2018-09-04T01:35:42.959Z,100196.05
2018-09-04T01:38:09.876Z,100197.59
2018-09-04T01:40:37.749Z,100201.27
2018-09-04T01:43:04.696Z,100204.05
2018-09-04T01:45:32.183Z,100200.48
2018-09-04T01:47:59.128Z,100202.80
2018-09-04T01:50:26.083Z,100206.20
2018-09-04T01:52:53.006Z,100205.92
2018-09-04T01:55:19.919Z,100202.30
2018-09-04T01:57:46.879Z,100203.37
2018-09-04T02:00:14.831Z,100199.25
2018-09-04T02:02:41.768Z,100198.88
2018-09-04T02:05:08.683Z,100189.31
2018-09-04T02:07:35.630Z,100193.75
2018-09-04T02:10:02.556Z,100200.13
2018-09-04T02:12:29.524Z,100197.38
2018-09-04T02:14:56.479Z,100202.05
2018-09-04T02:17:23.443Z,100202.08
2018-09-04T02:19:51.447Z,100203.20
2018-09-04T02:22:20.289Z,100199.19
2018-09-04T02:24:47.659Z,100203.39
2018-09-04T02:27:14.669Z,100203.76
2018-09-04T02:29:41.615Z,100208.74
2018-09-04T02:32:08.635Z,100210.75
2018-09-04T02:34:35.616Z,100213.06
2018-09-04T02:37:02.538Z,100214.20
2018-09-04T02:39:31.272Z,100209.74
2018-09-04T02:41:58.227Z,100209.27
2018-09-04T02:44:25.156Z,100209.81
2018-09-04T02:46:52.731Z,100212.00
2018-09-04T02:49:19.732Z,100214.70
2018-09-04T02:51:46.690Z,100215.74
2018-09-04T02:54:13.675Z,100204.02
2018-09-04T02:56:40.571Z,100208.01
2018-09-04T02:59:07.455Z,100201.85
2018-09-04T03:01:34.403Z,100203.11
2018-09-04T03:04:01.375Z,100202.16
2018-09-04T03:06:28.274Z,100196.23
2018-09-04T03:08:55.312Z,100192.56
2018-09-04T03:11:22.320Z,100206.52
2018-09-04T03:13:49.322Z,100205.12
2018-09-04T03:16:16.308Z,100206.70
2018-09-04T03:18:43.172Z,100206.64
2018-09-04T03:21:10.204Z,100213.75
2018-09-04T03:23:37.087Z,100209.63
2018-09-04T03:26:04.032Z,100218.28
2018-09-04T03:28:30.912Z,100222.88
2018-09-04T03:30:58.688Z,100222.25
2018-09-04T03:33:26.471Z,100221.39
2018-09-04T03:35:54.581Z,100216.00
2018-09-04T03:38:21.526Z,100213.94
2018-09-04T03:40:48.444Z,100213.07
2018-09-04T03:43:15.356Z,100212.26
2018-09-04T03:45:42.303Z,100214.12
2018-09-04T03:48:10.799Z,100216.44
2018-09-04T03:50:38.675Z,100219.55
2018-09-04T03:53:05.638Z,100221.31
2018-09-04T03:55:32.594Z,100220.86
2018-09-04T03:57:59.544Z,100219.11
2018-09-04T04:00:26.540Z,100217.21
2018-09-04T04:02:53.407Z,100216.36
2018-09-04T04:05:20.318Z,100218.00
2018-09-04T04:07:48.429Z,100220.58
2018-09-04T04:10:15.377Z,100221.62
2018-09-04T04:12:42.318Z,100223.30
2018-09-04T04:15:09.330Z,100218.11
2018-09-04T04:17:36.335Z,100221.25
2018-09-04T04:20:03.308Z,100223.93
2018-09-04T04:22:30.248Z,100220.19
2018-09-04T04:24:57.236Z,100228.63
2018-09-04T04:27:24.169Z,100229.55
2018-09-04T04:29:51.127Z,100228.60
2018-09-04T04:32:18.051Z,100231.21
2018-09-04T04:34:45.039Z,100228.16
2018-09-04T04:37:12.001Z,100231.52
2018-09-04T04:39:38.955Z,100230.97
2018-09-04T04:42:05.910Z,100232.78
2018-09-04T04:44:32.827Z,100235.41
2018-09-04T04:46:59.905Z,100235.91
2018-09-04T04:49:26.938Z,100235.72
2018-09-04T04:51:53.885Z,100232.28
2018-09-04T04:54:20.830Z,100234.19
2018-09-04T04:56:47.771Z,100236.81
2018-09-04T04:59:15.317Z,100239.19
2018-09-04T05:01:42.307Z,100241.88
2018-09-04T05:04:09.239Z,100240.00
2018-09-04T05:06:36.175Z,100238.16
2018-09-04T05:09:04.520Z,100243.91
2018-09-04T05:11:31.447Z,100251.53
2018-09-04T05:13:59.746Z,100248.78
2018-09-04T05:16:26.559Z,100251.59
2018-09-04T05:18:53.514Z,100255.85
2018-09-04T05:21:20.524Z,100258.92
2018-09-04T05:23:47.487Z,100256.70
2018-09-04T05:26:15.251Z,100260.61
2018-09-04T05:28:42.110Z,100258.45
2018-09-04T05:31:09.072Z,100258.43
2018-09-04T05:33:40.588Z,100262.70
2018-09-04T05:36:07.683Z,100264.39
2018-09-04T05:38:36.840Z,100259.52
2018-09-04T05:41:06.064Z,100266.95
2018-09-04T05:43:49.989Z,100269.05
2018-09-04T05:46:41.620Z,100265.23
2018-09-04T05:49:08.748Z,100270.58
2018-09-04T05:51:37.296Z,100270.07
2018-09-04T05:54:04.311Z,100268.09
2018-09-04T05:56:31.227Z,100275.67
2018-09-04T05:58:58.234Z,100277.05
2018-09-04T06:01:25.836Z,100277.41
2018-09-04T06:03:52.835Z,100289.55
2018-09-04T06:06:19.874Z,100281.66
2018-09-04T06:08:46.833Z,100283.25
2018-09-04T06:11:13.823Z,100279.22
2018-09-04T06:13:41.426Z,100279.84
2018-09-04T06:16:08.388Z,100282.84
2018-09-04T06:18:35.296Z,100284.17
2018-09-04T06:21:02.263Z,100281.80
2018-09-04T06:23:29.239Z,100287.70
2018-09-04T06:25:56.239Z,100284.75
2018-09-04T06:28:23.192Z,100281.06
2018-09-04T06:30:50.060Z,100279.39
2018-09-04T06:33:16.980Z,100283.78
2018-09-04T06:35:44.019Z,100288.27
2018-09-04T06:38:10.993Z,100289.42
2018-09-04T06:40:37.924Z,100298.44
2018-09-04T06:43:04.911Z,100298.29
2018-09-04T06:45:31.866Z,100303.00
2018-09-04T06:47:58.799Z,100303.59
2018-09-04T06:50:25.747Z,100310.38
2018-09-04T06:52:52.718Z,100305.50
2018-09-04T06:55:19.691Z,100307.32
2018-09-04T06:57:46.657Z,100307.71
2018-09-04T07:00:14.394Z,100306.40
2018-09-04T07:02:41.336Z,100306.14
2018-09-04T07:05:09.121Z,100309.14
2018-09-04T07:07:36.127Z,100304.23
2018-09-04T07:10:03.069Z,100306.94
2018-09-04T07:12:30.034Z,100300.48
2018-09-04T07:14:56.965Z,100299.11
2018-09-04T07:17:23.980Z,100294.20
2018-09-04T07:19:50.892Z,100302.31
2018-09-04T07:22:18.324Z,100301.70
2018-09-04T07:24:45.323Z,100305.33
2018-09-04T07:27:12.284Z,100307.83
2018-09-04T07:29:39.235Z,100313.31
2018-09-04T07:32:06.197Z,100311.91
2018-09-04T07:34:33.178Z,100315.84
2018-09-04T07:37:00.095Z,100313.22
2018-09-04T07:39:27.063Z,100308.75
2018-09-04T07:41:54.048Z,100309.24
2018-09-04T07:44:20.944Z,100311.27
2018-09-04T07:46:47.935Z,100307.70
2018-09-04T07:49:14.880Z,100306.58
2018-09-04T07:51:41.840Z,100297.70
2018-09-04T07:54:08.764Z,100294.41
2018-09-04T07:56:35.755Z,100292.31
2018-09-04T07:59:02.747Z,100292.09
2018-09-04T08:01:29.671Z,100291.94
2018-09-04T08:03:56.627Z,100292.61
2018-09-04T08:06:23.675Z,100296.56
2018-09-04T08:08:50.647Z,100293.05
2018-09-04T08:11:17.600Z,100299.84
2018-09-04T08:13:44.551Z,100295.08
2018-09-04T08:16:11.858Z,100296.61
2018-09-04T08:18:38.831Z,100287.54
2018-09-04T08:21:06.029Z,100284.46
2018-09-04T08:23:33.035Z,100281.88
2018-09-04T08:26:00.022Z,100277.84
2018-09-04T08:28:26.903Z,100280.53
2018-09-04T08:30:53.878Z,100270.59
2018-09-04T08:33:20.983Z,100275.15
2018-09-04T08:35:48.381Z,100275.09
2018-09-04T08:38:16.032Z,100282.09
2018-09-04T08:40:42.962Z,100280.61
2018-09-04T08:43:09.886Z,100279.12
2018-09-04T08:45:36.896Z,100277.94
2018-09-04T08:48:16.610Z,100276.66
2018-09-04T08:50:43.670Z,100282.92
2018-09-04T08:53:10.575Z,100284.70
2018-09-04T08:55:37.491Z,100281.33
2018-09-04T08:58:04.545Z,100280.09
2018-09-04T09:00:31.587Z,100272.11
2018-09-04T09:02:58.585Z,100281.00
2018-09-04T09:05:26.518Z,100270.17
2018-09-04T09:07:53.495Z,100265.66
2018-09-04T09:10:20.468Z,100263.98
2018-09-04T09:12:47.436Z,100260.39
2018-09-04T09:15:14.393Z,100261.16
2018-09-04T09:17:41.343Z,100257.02
2018-09-04T09:20:08.403Z,100245.02
2018-09-04T09:22:35.355Z,100250.64
2018-09-04T09:25:02.338Z,100242.19
2018-09-04T09:27:29.328Z,100240.95
2018-09-04T09:29:56.332Z,100248.09
2018-09-04T09:32:23.302Z,100245.34
2018-09-04T09:34:50.220Z,100249.59
2018-09-04T09:37:17.244Z,100240.06
2018-09-04T09:39:44.138Z,100242.74
2018-09-04T09:42:12.216Z,100239.72
2018-09-04T09:44:39.792Z,100241.58
2018-09-04T09:47:06.759Z,100242.72
2018-09-04T09:49:33.731Z,100235.98
2018-09-04T09:52:00.648Z,100234.45
2018-09-04T09:54:27.640Z,100232.31
2018-09-04T09:56:54.617Z,100235.52
2018-09-04T09:59:21.594Z,100228.16
2018-09-04T10:01:52.375Z,100237.47
2018-09-04T10:04:20.031Z,100234.74
2018-09-04T10:06:47.165Z,100233.73
2018-09-04T10:09:15.062Z,100237.16
2018-09-04T10:11:41.973Z,100231.07
2018-09-04T10:14:08.939Z,100227.97
2018-09-04T10:16:35.872Z,100227.56
2018-09-04T10:19:02.763Z,100225.89
2018-09-04T10:21:29.729Z,100223.55
2018-09-04T10:23:56.651Z,100232.17
2018-09-04T10:26:23.814Z,100225.16
2018-09-04T10:28:50.688Z,100221.38
2018-09-04T10:31:18.555Z,100216.09
2018-09-04T10:33:45.535Z,100210.97
2018-09-04T10:36:12.541Z,100213.98
2018-09-04T10:38:39.411Z,100210.03
2018-09-04T10:41:13.037Z,100208.47
2018-09-04T10:43:40.076Z,100208.87
2018-09-04T10:46:09.597Z,100212.55
2018-09-04T10:48:37.497Z,100209.94
2018-09-04T10:51:05.327Z,100210.50
2018-09-04T10:53:33.142Z,100209.21
2018-09-04T10:56:00.131Z,100208.88
2018-09-04T10:58:27.084Z,100204.11
2018-09-04T11:00:55.068Z,100198.11
2018-09-04T11:03:25.324Z,100204.11
2018-09-04T11:05:52.311Z,100192.45
2018-09-04T11:08:19.593Z,100198.27
2018-09-04T11:10:46.560Z,100197.02
2018-09-04T11:13:13.511Z,100206.83
2018-09-04T11:15:40.555Z,100195.91
2018-09-04T11:18:08.571Z,100189.64
2018-09-04T11:20:35.552Z,100184.95
2018-09-04T11:23:02.499Z,100188.73
2018-09-04T11:25:29.634Z,100178.91
2018-09-04T11:27:56.615Z,100184.86
2018-09-04T11:30:23.552Z,100184.93
2018-09-04T11:32:50.524Z,100193.43
2018-09-04T11:35:17.463Z,100193.43
2018-09-04T11:37:44.453Z,100185.31
2018-09-04T11:40:11.395Z,100181.53
2018-09-04T11:42:38.366Z,100172.86
2018-09-04T11:45:06.120Z,100173.52
2018-09-04T11:47:33.219Z,100190.97
2018-09-04T11:50:00.146Z,100184.03
2018-09-04T11:52:27.148Z,100177.95
2018-09-04T11:54:54.051Z,100180.09
2018-09-04T11:57:20.982Z,100180.17
2018-09-04T11:59:48.005Z,100179.88
2018-09-04T12:02:20.435Z,100179.57
2018-09-04T12:04:47.403Z,100178.98
2018-09-04T12:07:14.343Z,100183.02
2018-09-04T12:09:41.313Z,100176.08
2018-09-04T12:12:27.797Z,100183.67
2018-09-04T12:14:54.707Z,100180.97
2018-09-04T12:17:21.639Z,100173.97
2018-09-04T12:20:13.835Z,100171.28
2018-09-04T12:22:40.768Z,100165.61
2018-09-04T12:25:07.748Z,100153.34
2018-09-04T12:27:34.667Z,100159.79
2018-09-04T12:30:01.640Z,100159.17
2018-09-04T12:32:28.631Z,100155.66
2018-09-04T12:34:55.571Z,100167.27
2018-09-04T12:37:22.568Z,100164.77
2018-09-04T12:39:55.242Z,100158.59
2018-09-04T12:42:22.217Z,100155.08
2018-09-04T12:44:49.127Z,100154.15
2018-09-04T12:47:16.051Z,100159.47
2018-09-04T12:49:43.031Z,100152.11
2018-09-04T12:52:10.027Z,100146.11
2018-09-04T12:54:36.959Z,100143.22
2018-09-04T12:57:03.937Z,100150.39
2018-09-04T12:59:30.835Z,100150.44
2018-09-04T13:01:57.811Z,100153.94
2018-09-04T13:04:24.816Z,100161.16
2018-09-04T13:06:51.791Z,100157.62
2018-09-04T13:09:18.766Z,100153.34
2018-09-04T13:11:45.748Z,100150.64
2018-09-04T13:14:12.713Z,100154.25
2018-09-04T13:16:39.688Z,100152.80
2018-09-04T13:19:06.645Z,100150.75
2018-09-04T13:21:33.595Z,100143.73
2018-09-04T13:24:00.535Z,100146.67
2018-09-04T13:26:27.499Z,100153.58
2018-09-04T13:28:54.458Z,100155.08
2018-09-04T13:31:21.392Z,100153.62
2018-09-04T13:33:49.220Z,100149.31
2018-09-04T13:36:16.155Z,100146.58
2018-09-04T13:38:43.127Z,100149.24
2018-09-04T13:41:10.073Z,100143.03
2018-09-04T13:43:38.346Z,100143.92
2018-09-04T13:46:05.450Z,100145.61
2018-09-04T13:48:33.098Z,100140.94
2018-09-04T13:51:00.665Z,100143.00
2018-09-04T13:53:28.623Z,100146.08
2018-09-04T13:55:55.991Z,100143.23
2018-09-04T13:58:22.965Z,100136.30
2018-09-04T14:00:49.915Z,100138.00
2018-09-04T14:03:16.891Z,100134.75
2018-09-04T14:05:43.831Z,100136.55
2018-09-04T14:08:12.051Z,100138.30
2018-09-04T14:10:39.010Z,100139.13
2018-09-04T14:13:05.949Z,100145.37
2018-09-04T14:15:32.893Z,100139.13
2018-09-04T14:17:59.872Z,100130.44
2018-09-04T14:20:26.836Z,100118.33
2018-09-04T14:22:54.733Z,100118.08
2018-09-04T14:25:21.697Z,100112.20
2018-09-04T14:27:48.600Z,100109.95
2018-09-04T14:30:16.714Z,100101.94
2018-09-04T14:32:43.603Z,100108.36
2018-09-04T14:35:10.612Z,100114.54
2018-09-04T14:37:37.652Z,100101.13
2018-09-04T14:40:05.500Z,100110.38
2018-09-04T14:42:32.471Z,100117.45
2018-09-04T14:44:59.428Z,100118.05
2018-09-04T14:47:26.311Z,100114.31
2018-09-04T14:49:53.240Z,100112.63
2018-09-04T14:52:20.227Z,100121.69
2018-09-04T14:54:48.239Z,100115.17
2018-09-04T14:57:15.163Z,100120.64
2018-09-04T14:59:42.129Z,100111.84
2018-09-04T15:02:09.084Z,100116.92
2018-09-04T15:04:36.047Z,100112.37
2018-09-04T15:07:03.043Z,100108.92
2018-09-04T15:09:29.963Z,100111.22
2018-09-04T15:11:56.926Z,100103.83
2018-09-04T15:14:23.863Z,100107.31
2018-09-04T15:16:51.801Z,100101.48
2018-09-04T15:19:18.701Z,100096.59
2018-09-04T15:21:45.671Z,100103.23
2018-09-04T15:24:12.602Z,100091.30
2018-09-04T15:26:39.583Z,100096.43
2018-09-04T15:29:06.661Z,100093.70
2018-09-04T15:31:33.603Z,100098.07
2018-09-04T15:34:00.543Z,100099.55
2018-09-04T15:36:27.504Z,100103.89
2018-09-04T15:38:55.183Z,100109.14
2018-09-04T15:41:22.139Z,100104.94
2018-09-04T15:43:49.092Z,100108.23
2018-09-04T15:46:16.195Z,100110.78
2018-09-04T15:48:43.184Z,100112.23
2018-09-04T15:51:10.183Z,100104.45
2018-09-04T15:53:37.127Z,100107.73
2018-09-04T15:56:04.076Z,100107.02
2018-09-04T15:58:31.335Z,100103.73
2018-09-04T16:00:58.311Z,100110.23
2018-09-04T16:03:25.252Z,100108.84
2018-09-04T16:05:52.215Z,100103.83
2018-09-04T16:08:19.171Z,100101.25
2018-09-04T16:10:46.146Z,100105.95
2018-09-04T16:13:13.214Z,100109.13
2018-09-04T16:15:40.163Z,100106.94
2018-09-04T16:18:07.436Z,100117.64
2018-09-04T16:20:34.558Z,100112.52
2018-09-04T16:23:01.461Z,100117.12
2018-09-04T16:25:28.403Z,100118.87
2018-09-04T16:27:55.364Z,100116.27
2018-09-04T16:30:22.315Z,100118.41
2018-09-04T16:32:49.299Z,100113.77
2018-09-04T16:35:16.232Z,100117.89
2018-09-04T16:37:43.199Z,100125.37
2018-09-04T16:40:10.141Z,100123.59
2018-09-04T16:42:37.112Z,100116.28
2018-09-04T16:45:04.311Z,100117.89
2018-09-04T16:47:31.224Z,100118.16
2018-09-04T16:49:58.191Z,100123.11
2018-09-04T16:52:25.127Z,100118.17
2018-09-04T16:54:52.099Z,100125.11
2018-09-04T16:57:19.063Z,100123.61
2018-09-04T16:59:46.044Z,100123.73
2018-09-04T17:02:12.993Z,100120.89
2018-09-04T17:04:39.928Z,100126.08
2018-09-04T17:07:10.569Z,100124.28
2018-09-04T17:09:37.528Z,100117.06
2018-09-04T17:12:04.476Z,100125.33
2018-09-04T17:14:31.446Z,100129.52
2018-09-04T17:16:58.395Z,100138.13
2018-09-04T17:19:25.363Z,100141.76
2018-09-04T17:21:52.373Z,100125.52
2018-09-04T17:24:19.283Z,100132.87
2018-09-04T17:26:46.263Z,100133.91
2018-09-04T17:29:13.208Z,100139.25
2018-09-04T17:31:40.155Z,100144.01
2018-09-04T17:34:07.075Z,100145.11
2018-09-04T17:36:34.076Z,100150.34
2018-09-04T17:39:01.019Z,100150.97
2018-09-04T17:41:28.478Z,100152.74
2018-09-04T17:43:55.447Z,100154.00
2018-09-04T17:46:22.534Z,100160.31
2018-09-04T17:48:49.490Z,100160.56
2018-09-04T17:51:16.488Z,100158.83
2018-09-04T17:53:43.421Z,100165.98
2018-09-04T17:56:10.367Z,100168.23
2018-09-04T17:58:37.279Z,100167.30
2018-09-04T18:01:07.124Z,100163.39
2018-09-04T18:03:34.305Z,100162.83
2018-09-04T18:06:01.275Z,100168.23
2018-09-04T18:08:28.211Z,100175.13
2018-09-04T18:10:55.180Z,100170.73
2018-09-04T18:13:22.827Z,100171.80
2018-09-04T18:15:49.835Z,100175.73
2018-09-04T18:18:16.867Z,100177.06
2018-09-04T18:20:43.845Z,100176.88
2018-09-04T18:23:10.798Z,100185.45
2018-09-04T18:25:37.792Z,100188.87
2018-09-04T18:28:04.775Z,100190.39
2018-09-04T18:30:31.735Z,100195.34
2018-09-04T18:32:58.724Z,100194.17
2018-09-04T18:35:25.750Z,100197.80
2018-09-04T18:37:52.741Z,100208.36
2018-09-04T18:40:19.707Z,100209.81
2018-09-04T18:42:46.653Z,100212.60
2018-09-04T18:45:40.777Z,100207.48
2018-09-04T18:48:07.715Z,100221.98
2018-09-04T18:50:35.268Z,100220.23
2018-09-04T18:53:02.215Z,100227.86
2018-09-04T18:55:29.179Z,100225.59
2018-09-04T18:57:56.143Z,100219.14
2018-09-04T19:00:23.713Z,100223.92
2018-09-04T19:02:50.700Z,100229.90
2018-09-04T19:05:18.492Z,100225.16
2018-09-04T19:07:45.404Z,100234.95
2018-09-04T19:10:12.371Z,100234.58
2018-09-04T19:12:39.299Z,100239.21
2018-09-04T19:15:06.603Z,100232.06
2018-09-04T19:17:33.605Z,100225.19
2018-09-04T19:20:01.307Z,100233.02
2018-09-04T19:22:28.231Z,100232.84
2018-09-04T19:24:55.215Z,100226.95
2018-09-04T19:27:22.176Z,100232.91
2018-09-04T19:29:49.179Z,100236.53
2018-09-04T19:32:16.157Z,100232.27
2018-09-04T19:34:43.149Z,100235.09
2018-09-04T19:37:10.229Z,100238.06
2018-09-04T19:39:37.167Z,100230.78
2018-09-04T19:42:04.187Z,100234.95
2018-09-04T19:44:31.071Z,100232.66
2018-09-04T19:46:58.063Z,100232.34
2018-09-04T19:49:25.043Z,100240.68
2018-09-04T19:51:52.899Z,100242.39
2018-09-04T19:54:19.815Z,100246.20
2018-09-04T19:56:46.813Z,100250.77
2018-09-04T19:59:13.772Z,100246.47
2018-09-04T20:01:40.929Z,100249.27
2018-09-04T20:04:07.863Z,100255.20
2018-09-04T20:06:34.867Z,100255.63
2018-09-04T20:09:01.787Z,100259.56
2018-09-04T20:11:28.704Z,100263.19
2018-09-04T20:13:55.676Z,100267.58
2018-09-04T20:16:22.691Z,100263.73
2018-09-04T20:18:49.641Z,100268.37
2018-09-04T20:21:16.567Z,100268.19
2018-09-04T20:23:43.523Z,100264.69
2018-09-04T20:26:10.501Z,100257.58
2018-09-04T20:28:38.459Z,100259.92
2018-09-04T20:31:05.495Z,100262.21
2018-09-04T20:33:32.480Z,100262.44
2018-09-04T20:35:59.413Z,100265.83
2018-09-04T20:38:26.292Z,100265.31
2018-09-04T20:40:53.243Z,100261.13
2018-09-04T20:43:20.231Z,100260.33
2018-09-04T20:45:47.231Z,100262.17
2018-09-04T20:48:14.123Z,100257.65
2018-09-04T20:50:41.076Z,100261.69
2018-09-04T20:53:08.040Z,100261.49
2018-09-04T20:55:34.996Z,100258.38
2018-09-04T20:58:13.551Z,100255.54
2018-09-04T21:00:52.118Z,100254.27
2018-09-04T21:03:30.737Z,100258.54
2018-09-04T21:06:09.307Z,100260.84
2018-09-04T21:09:05.023Z,100259.65
2018-09-04T21:11:32.035Z,100260.65
2018-09-04T21:13:58.967Z,100260.58
2018-09-04T21:16:25.938Z,100254.87
2018-09-04T21:18:52.862Z,100254.64
2018-09-04T21:21:20.031Z,100257.27
2018-09-04T21:23:47.059Z,100261.45
2018-09-04T21:26:14.051Z,100254.47
2018-09-04T21:28:40.918Z,100259.75
2018-09-04T21:31:07.890Z,100249.97
2018-09-04T21:33:34.855Z,100253.14
2018-09-04T21:36:01.811Z,100255.95
2018-09-04T21:38:28.840Z,100255.13
2018-09-04T21:40:55.808Z,100250.48
2018-09-04T21:43:22.750Z,100247.84
2018-09-04T21:45:49.738Z,100239.63
2018-09-04T21:48:16.663Z,100236.18
2018-09-04T21:50:43.607Z,100237.05
2018-09-04T21:53:10.595Z,100237.22
2018-09-04T21:55:37.559Z,100239.24
2018-09-04T21:58:04.773Z,100239.83
2018-09-04T22:00:31.767Z,100238.50
2018-09-04T22:02:58.716Z,100238.45
2018-09-04T22:05:26.317Z,100242.26
2018-09-04T22:07:54.063Z,100241.41
2018-09-04T22:10:21.026Z,100228.81
2018-09-04T22:12:48.019Z,100237.84
2018-09-04T22:15:14.951Z,100243.68
2018-09-04T22:17:41.899Z,100247.41
2018-09-04T22:20:08.948Z,100245.59
2018-09-04T22:22:35.991Z,100244.18
2018-09-04T22:25:02.859Z,100241.35
2018-09-04T22:27:29.863Z,100241.75
2018-09-04T22:29:56.780Z,100240.63
2018-09-04T22:32:23.747Z,100239.82
2018-09-04T22:34:50.691Z,100241.36
2018-09-04T22:37:17.651Z,100239.33
2018-09-04T22:39:44.705Z,100241.45
2018-09-04T22:42:11.682Z,100238.01
2018-09-04T22:44:38.635Z,100234.84
2018-09-04T22:47:07.662Z,100240.34
2018-09-04T22:49:34.628Z,100237.50
2018-09-04T22:52:01.586Z,100239.61
2018-09-04T22:54:28.642Z,100245.11
2018-09-04T22:56:55.603Z,100245.73
2018-09-04T22:59:22.537Z,100241.36
2018-09-04T23:01:49.983Z,100242.64
2018-09-04T23:04:16.959Z,100243.94
2018-09-04T23:06:43.899Z,100243.33
2018-09-04T23:09:10.876Z,100237.77
2018-09-04T23:11:37.828Z,100235.20
2018-09-04T23:14:04.799Z,100238.46
2018-09-04T23:16:31.745Z,100241.03
2018-09-04T23:18:58.691Z,100244.27
2018-09-04T23:21:25.663Z,100241.92
2018-09-04T23:23:52.642Z,100238.58
2018-09-04T23:26:19.502Z,100236.28
2018-09-04T23:28:46.431Z,100246.33
2018-09-04T23:31:13.399Z,100241.75
2018-09-04T23:33:40.370Z,100245.00
2018-09-04T23:36:07.271Z,100240.60
2018-09-04T23:38:34.975Z,100242.25
2018-09-04T23:41:01.954Z,100246.05
2018-09-04T23:43:28.905Z,100246.45
2018-09-04T23:45:55.870Z,100247.89
2018-09-04T23:48:22.795Z,100250.00
2018-09-04T23:50:49.779Z,100244.31
2018-09-04T23:53:16.801Z,100250.23
2018-09-04T23:55:43.792Z,100249.20
2018-09-04T23:58:10.740Z,100246.55
